Time,TemperatureF,DewpointF,PressureIn,WindDirection,WindDirectionDegrees,WindSpeedMPH,WindSpeedGustMPH,Humidity,HourlyPrecipIn,Conditions,Clouds,dailyrainin,SoftwareType,DateUTC
2013-03-04 00:00:00,48.9,25.0,29.87,West,274,5.0,23.0,39,0.00,,---,0.00,VWS V14.01,2013-03-04 07:00:00,
2013-03-04 00:30:00,48.6,26.0,29.87,WSW,258,22.0,22.0,41,0.00,,---,0.00,VWS V14.01,2013-03-04 07:30:00,
2013-03-04 01:00:00,48.7,26.6,29.88,West,265,7.0,29.0,42,0.00,,---,0.00,VWS V14.01,2013-03-04 08:00:00,
2013-03-04 01:30:00,48.0,26.0,29.88,West,278,10.0,23.0,42,0.00,,---,0.00,VWS V14.01,2013-03-04 08:30:00,
2013-03-04 02:00:00,48.1,26.1,29.88,SW,222,9.0,20.0,42,0.00,,---,0.00,VWS V14.01,2013-03-04 09:00:00,
2013-03-04 02:30:00,47.7,25.8,29.88,West,271,6.0,18.0,42,0.00,,---,0.00,VWS V14.01,2013-03-04 09:30:00,
2013-03-04 03:00:00,47.0,25.7,29.88,WSW,246,7.0,20.0,43,0.00,,---,0.00,VWS V14.01,2013-03-04 10:00:00,
2013-03-04 03:30:00,46.0,26.9,29.87,WSW,243,4.0,18.0,47,0.00,,---,0.00,VWS V14.01,2013-03-04 10:30:00,
2013-03-04 04:00:00,44.1,26.2,29.92,NNW,344,6.0,13.0,49,0.00,,---,0.00,VWS V14.01,2013-03-04 11:00:00,
2013-03-04 04:30:00,33.8,21.0,29.99,NNW,339,6.0,19.0,59,0.00,,---,0.00,VWS V14.01,2013-03-04 11:30:00,
2013-03-04 05:00:00,33.6,18.3,30.00,North,2,1.0,7.0,53,0.00,,---,0.00,VWS V14.01,2013-03-04 12:00:00,
2013-03-04 05:30:00,33.4,18.1,30.02,NE,39,1.0,4.0,53,0.00,,---,0.00,VWS V14.01,2013-03-04 12:30:00,
2013-03-04 06:00:00,33.1,17.8,30.01,ENE,73,1.0,4.0,53,0.00,,---,0.00,VWS V14.01,2013-03-04 13:00:00,
2013-03-04 06:30:00,32.8,18.0,30.01,ESE,105,1.0,4.0,54,0.00,,---,0.00,VWS V14.01,2013-03-04 13:30:00,
2013-03-04 07:00:00,32.1,19.8,30.02,ESE,111,1.0,10.0,60,0.00,,---,0.00,VWS V14.01,2013-03-04 14:00:00,
2013-03-04 07:30:00,32.5,20.9,30.03,ESE,113,0.0,8.0,62,0.00,,---,0.00,VWS V14.01,2013-03-04 14:30:00,
2013-03-04 08:00:00,32.6,20.7,30.04,ENE,61,0.0,7.0,61,0.00,,---,0.00,VWS V14.01,2013-03-04 15:00:00,
2013-03-04 08:30:00,33.8,19.4,30.04,ESE,102,1.0,5.0,55,0.00,,---,0.00,VWS V14.01,2013-03-04 15:30:00,
2013-03-04 09:00:00,34.5,18.7,30.03,NNE,33,1.0,5.0,52,0.00,,---,0.00,VWS V14.01,2013-03-04 16:00:00,
2013-03-04 09:30:00,35.1,18.4,30.03,ESE,111,1.0,7.0,50,0.00,,---,0.00,VWS V14.01,2013-03-04 16:30:00,
2013-03-04 10:00:00,35.8,18.0,30.02,East,97,1.0,6.0,48,0.00,,---,0.00,VWS V14.01,2013-03-04 17:00:00,
2013-03-04 10:30:00,36.0,18.7,30.01,ENE,64,2.0,5.0,49,0.00,,---,0.00,VWS V14.01,2013-03-04 17:30:00,
2013-03-04 11:00:00,35.3,17.6,30.02,NE,45,1.0,5.0,48,0.00,,---,0.00,VWS V14.01,2013-03-04 18:00:00,
2013-03-04 11:30:00,33.0,17.8,30.03,NNE,25,2.0,8.0,53,0.00,,---,0.00,VWS V14.01,2013-03-04 18:30:00,
2013-03-04 12:00:00,31.2,15.6,30.07,NNE,26,7.0,7.0,52,0.00,,---,0.00,VWS V14.01,2013-03-04 19:00:00,
2013-03-04 12:30:00,29.0,19.1,30.08,NNW,331,1.0,8.0,66,0.00,,---,0.00,VWS V14.01,2013-03-04 19:30:00,
2013-03-04 13:00:00,29.1,19.5,30.10,NNW,331,0.0,3.0,67,0.00,,---,0.00,VWS V14.01,2013-03-04 20:00:00,
2013-03-04 13:30:00,31.0,19.9,30.10,NNW,331,0.0,3.0,63,0.00,,---,0.00,VWS V14.01,2013-03-04 20:30:00,
2013-03-04 14:00:00,31.2,20.8,30.11,NNW,330,1.0,1.0,65,0.00,,---,0.00,VWS V14.01,2013-03-04 21:00:00,
2013-03-04 14:30:00,29.8,19.8,30.13,North,0,3.0,5.0,66,0.00,,---,0.00,VWS V14.01,2013-03-04 21:30:00,
2013-03-04 15:00:00,28.7,18.8,30.15,North,350,0.0,5.0,66,0.01,,---,0.01,VWS V14.01,2013-03-04 22:00:00,
2013-03-04 15:30:00,30.7,20.0,30.15,East,100,1.0,4.0,64,0.02,,---,0.02,VWS V14.01,2013-03-04 22:30:00,
2013-03-04 16:00:00,32.0,19.7,30.17,ESE,106,0.0,6.0,60,0.03,,---,0.03,VWS V14.01,2013-03-04 23:00:00,
2013-03-04 16:30:00,31.4,19.1,30.19,SE,125,2.0,5.0,60,0.03,,---,0.04,VWS V14.01,2013-03-04 23:30:00,
2013-03-04 17:00:00,30.0,19.0,30.19,SE,126,0.0,4.0,63,0.02,,---,0.04,VWS V14.01,2013-03-05 00:00:00,
2013-03-04 17:30:00,28.6,18.0,30.21,ESE,119,2.0,4.0,64,0.01,,---,0.04,VWS V14.01,2013-03-05 00:30:00,
2013-03-04 18:00:00,27.2,16.3,30.23,ESE,119,0.0,4.0,63,0.00,,---,0.04,VWS V14.01,2013-03-05 01:00:00,
2013-03-04 18:30:00,26.0,16.2,30.25,ESE,119,1.0,2.0,66,0.00,,---,0.04,VWS V14.01,2013-03-05 01:30:00,
2013-03-04 19:00:00,25.1,14.6,30.26,ESE,119,2.0,4.0,64,0.00,,---,0.04,VWS V14.01,2013-03-05 02:00:00,
2013-03-04 19:30:00,25.0,14.2,30.27,ESE,118,0.0,4.0,63,0.00,,---,0.04,VWS V14.01,2013-03-05 02:30:00,
2013-03-04 20:00:00,24.0,14.0,30.28,ESE,118,1.0,2.0,65,0.00,,---,0.04,VWS V14.01,2013-03-05 03:00:00,
2013-03-04 20:30:00,23.4,13.0,30.29,ESE,118,0.0,2.0,64,0.00,,---,0.04,VWS V14.01,2013-03-05 03:30:00,
2013-03-04 21:00:00,22.9,13.3,30.31,ESE,118,1.0,4.0,66,0.00,,---,0.04,VWS V14.01,2013-03-05 04:00:00,
2013-03-04 21:30:00,23.8,13.8,30.32,SE,127,3.0,8.0,65,0.00,,---,0.04,VWS V14.01,2013-03-05 04:30:00,
2013-03-04 22:00:00,23.2,13.5,30.34,SE,127,1.0,5.0,66,0.00,,---,0.04,VWS V14.01,2013-03-05 05:00:00,
2013-03-04 22:30:00,22.2,12.6,30.34,SE,127,0.0,7.0,66,0.00,,---,0.04,VWS V14.01,2013-03-05 05:30:00,
2013-03-04 23:00:00,21.2,9.1,30.34,SSE,160,0.0,4.0,59,0.00,,---,0.04,VWS V14.01,2013-03-05 06:00:00,
2013-03-04 23:30:00,20.6,9.7,30.34,SSE,160,1.0,3.0,62,0.00,,---,0.04,VWS V14.01,2013-03-05 06:30:00,